| time (UTC) | temp C | wind direction | speed KPH | gust KPH | rain 1hr cm | rain 24hr cm | rain mn cm | humidity % | barometer mb |
| 20260506163746 | 14 | 180 | 1.6 | 6.4 | 0.00 | 0.00 | 0.00 | 1020.9 | |
| 20260506162246 | 14 | 180 | 4.8 | 8.0 | 0.00 | 0.00 | 0.00 | 1020.9 | |
| 20260506160747 | 13 | 180 | 1.6 | 6.4 | 0.00 | 0.00 | 0.00 | 1020.9 | |
| 20260506155247 | 13 | 180 | 1.6 | 4.8 | 0.00 | 0.00 | 0.00 | 1020.9 | |
| 20260506153746 | 13 | 180 | 0.0 | 1.6 | 0.00 | 0.00 | 0.00 | 1020.9 | |
| 20260506142246 | 12 | 0 | 0.0 | 0.0 | 0.00 | 0.00 | 0.00 | 1020.6 | |
| 20260506140746 | 11 | 0 | 0.0 | 0.0 | 0.00 | 0.00 | 0.00 | 1020.5 | |
| 20260506135247 | 11 | 0 | 0.0 | 0.0 | 0.00 | 0.00 | 0.00 | 1020.4 | |
| 20260506133747 | 11 | 0 | 0.0 | 0.0 | 0.00 | 0.00 | 0.00 | 1020.3 | |
| 20260506132247 | 11 | 0 | 0.0 | 0.0 | 0.00 | 0.00 | 0.00 | 1020.2 | |
| 20260506130747 | 11 | 0 | 0.0 | 0.0 | 0.00 | 0.00 | 0.00 | 1020.2 | |
| 20260506125247 | 11 | 0 | 0.0 | 0.0 | 0.00 | 0.00 | 0.00 | 1020.1 | |
| 20260506123747 | 11 | 0 | 0.0 | 0.0 | 0.00 | 0.00 | 0.00 | 1020.0 | |
| 20260506122247 | 11 | 0 | 0.0 | 0.0 | 0.00 | 0.00 | 0.00 | 1020.0 | |
| 20260506120747 | 11 | 0 | 0.0 | 0.0 | 0.00 | 0.00 | 0.00 | 1019.9 | |
| 20260506115247 | 11 | 0 | 0.0 | 0.0 | 0.00 | 0.00 | 0.00 | 1019.9 | |
| 20260506113747 | 11 | 0 | 0.0 | 0.0 | 0.00 | 0.00 | 0.00 | 1019.7 | |
| 20260506112247 | 11 | 0 | 0.0 | 0.0 | 0.00 | 0.00 | 0.00 | 1019.6 | |
| 20260506110747 | 11 | 0 | 0.0 | 0.0 | 0.00 | 0.00 | 0.00 | 1019.5 | |
| 20260506105247 | 12 | 0 | 0.0 | 0.0 | 0.00 | 0.00 | 0.00 | 1019.4 | |
| 20260506102249 | 12 | 0 | 0.0 | 0.0 | 0.00 | 0.00 | 0.00 | 1019.2 | |
| 20260506093749 | 11 | 0 | 0.0 | 0.0 | 0.00 | 0.00 | 0.00 | 1019.2 | |
| 20260506090749 | 11 | 0 | 0.0 | 0.0 | 0.00 | 0.00 | 0.00 | 1019.4 | |
| 20260506085248 | 11 | 0 | 0.0 | 0.0 | 0.00 | 0.00 | 0.00 | 1019.3 | |
| 20260506084304 | 11 | 0 | 0.0 | 0.0 | 0.00 | 0.00 | 0.00 | 1019.3 | |
| 20260506083748 | 11 | 0 | 0.0 | 0.0 | 0.00 | 0.00 | 0.00 | 1019.3 | |
| 20260506082248 | 11 | 180 | 1.6 | 6.4 | 0.00 | 0.00 | 0.00 | 1019.2 | |
| 20260506080748 | 11 | 0 | 0.0 | 0.0 | 0.00 | 0.00 | 0.00 | 1019.2 | |
| 20260506072248 | 11 | 180 | 1.6 | 9.7 | 0.00 | 0.00 | 0.00 | 1018.8 | |
| 20260506070748 | 12 | 0 | 0.0 | 0.0 | 0.00 | 0.00 | 0.00 | 1018.7 | |
| 20260506062248 | 12 | 180 | 1.6 | 4.8 | 0.00 | 0.00 | 0.00 | 1018.4 | |
| 20260506060748 | 12 | 180 | 1.6 | 6.4 | 0.00 | 0.00 | 0.00 | 1018.3 | |
| 20260506050750 | 12 | 180 | 3.2 | 9.7 | 0.00 | 0.00 | 0.00 | 1017.9 | |
| 20260506043749 | 13 | 180 | 3.2 | 8.0 | 0.00 | 0.00 | 0.00 | 1017.6 | |
| 20260506042249 | 13 | 180 | 4.8 | 8.0 | 0.00 | 0.00 | 0.00 | 1017.4 | |
| 20260506040749 | 13 | 180 | 4.8 | 11.3 | 0.00 | 0.00 | 0.00 | 1017.2 | |
| 20260506035249 | 13 | 180 | 3.2 | 9.7 | 0.00 | 0.00 | 0.00 | 1017.1 | |
| 20260506033750 | 13 | 180 | 3.2 | 9.7 | 0.00 | 0.00 | 0.00 | 1016.8 | |
| 20260506032252 | 13 | 180 | 6.4 | 12.9 | 0.00 | 0.00 | 0.00 | 1016.6 | |
| 20260506025250 | 13 | 180 | 4.8 | 12.9 | 0.00 | 0.00 | 0.00 | 1016.2 | |
| 20260506023750 | 13 | 180 | 1.6 | 9.7 | 0.00 | 0.00 | 0.00 | 1016.1 | |
| 20260506022249 | 13 | 180 | 4.8 | 12.9 | 0.00 | 0.00 | 0.00 | 1016.0 | |
| 20260506020752 | 14 | 180 | 6.4 | 16.1 | 0.00 | 0.00 | 0.00 | 1015.8 | |
| 20260506015249 | 14 | 180 | 6.4 | 16.1 | 0.00 | 0.00 | 0.00 | 1015.7 | |
| 20260506013749 | 15 | 180 | 8.0 | 16.1 | 0.00 | 0.00 | 0.00 | 1015.6 | |
| 20260506012249 | 15 | 180 | 9.7 | 17.7 | 0.00 | 0.00 | 0.00 | 1015.4 | |
| 20260506010749 | 14 | 180 | 6.4 | 16.1 | 0.00 | 0.00 | 0.00 | 1015.3 | |
| 20260506005249 | 15 | 180 | 4.8 | 12.9 | 0.00 | 0.00 | 0.00 | 1015.3 | |
| 20260506002251 | 15 | 180 | 6.4 | 16.1 | 0.00 | 0.00 | 0.00 | 1015.1 | |
| 20260506000750 | 15 | 180 | 6.4 | 14.5 | 0.00 | 0.00 | 0.00 | 1015.1 | |
| 20260505235250 | 15 | 180 | 4.8 | 12.9 | 0.00 | 0.00 | 0.00 | 1015.1 | |
| 20260505233750 | 16 | 180 | 4.8 | 9.7 | 0.00 | 0.00 | 0.00 | 1015.1 | |
| 20260505230750 | 16 | 180 | 8.0 | 14.5 | 0.00 | 0.00 | 0.00 | 1015.0 | |
| 20260505225250 | 16 | 180 | 9.7 | 17.7 | 0.00 | 0.00 | 0.00 | 1015.0 | |
| 20260505213752 | 17 | 180 | 3.2 | 11.3 | 0.00 | 0.00 | 0.00 | 1015.4 | |
| 20260505212251 | 17 | 180 | 6.4 | 16.1 | 0.00 | 0.00 | 0.00 | 1015.5 | |
| 20260505205305 | 17 | 180 | 6.4 | 16.1 | 0.00 | 0.00 | 0.00 | 1015.6 | |
| 20260505202250 | 16 | 180 | 4.8 | 9.7 | 0.00 | 0.00 | 0.00 | 1015.8 | |
| 20260505200751 | 16 | 180 | 6.4 | 11.3 | 0.00 | 0.00 | 0.00 | 1015.8 | |
| 20260505195252 | 15 | 180 | 8.0 | 12.9 | 0.00 | 0.00 | 0.00 | 1015.9 | |
| 20260505192252 | 16 | 180 | 3.2 | 9.7 | 0.00 | 0.00 | 0.00 | 1015.9 | |
| 20260505190752 | 15 | 180 | 3.2 | 9.7 | 0.00 | 0.00 | 0.00 | 1015.9 | |
| 20260505185251 | 15 | 180 | 4.8 | 9.7 | 0.00 | 0.00 | 0.00 | 1015.9 | |
| 20260505182251 | 15 | 180 | 1.6 | 6.4 | 0.00 | 0.00 | 0.00 | 1016.0 | |
| 20260505175252 | 14 | 180 | 4.8 | 11.3 | 0.00 | 0.00 | 0.00 | 1015.9 | |
| 20260505172252 | 13 | 180 | 3.2 | 8.0 | 0.00 | 0.00 | 0.00 | 1015.7 |